sensor_id;sensor_type;location;lat;lon;timestamp;pressure;altitude;pressure_sealevel;temperature;humidity
47260;BME280;32999;52.412;4.890;2022-10-31T00:04:14;102053.38;;;14.64;100.00
47260;BME280;32999;52.412;4.890;2022-10-31T00:09:16;101950.03;;;14.06;100.00
47260;BME280;32999;52.412;4.890;2022-10-31T00:14:19;101961.69;;;14.13;100.00
47260;BME280;32999;52.412;4.890;2022-10-31T00:19:20;101930.31;;;13.91;100.00
47260;BME280;32999;52.412;4.890;2022-10-31T00:24:22;101994.38;;;14.25;100.00
47260;BME280;32999;52.412;4.890;2022-10-31T00:29:25;101999.94;;;14.23;100.00
47260;BME280;32999;52.412;4.890;2022-10-31T00:34:27;101925.63;;;13.70;100.00
47260;BME280;32999;52.412;4.890;2022-10-31T00:39:28;102032.03;;;14.40;100.00
47260;BME280;32999;52.412;4.890;2022-10-31T00:44:31;102040.75;;;14.50;100.00
47260;BME280;32999;52.412;4.890;2022-10-31T00:49:33;102050.38;;;14.44;100.00
47260;BME280;32999;52.412;4.890;2022-10-31T00:54:35;101919.44;;;13.70;100.00
47260;BME280;32999;52.412;4.890;2022-10-31T00:59:38;102037.22;;;14.49;100.00
47260;BME280;32999;52.412;4.890;2022-10-31T01:04:39;101975.97;;;13.99;100.00
47260;BME280;32999;52.412;4.890;2022-10-31T01:09:41;102058.78;;;14.41;100.00
47260;BME280;32999;52.412;4.890;2022-10-31T01:14:45;102054.31;;;14.34;100.00
47260;BME280;32999;52.412;4.890;2022-10-31T01:19:47;101966.00;;;13.85;100.00
47260;BME280;32999;52.412;4.890;2022-10-31T01:24:48;102032.56;;;14.20;100.00
47260;BME280;32999;52.412;4.890;2022-10-31T01:29:52;101950.44;;;13.57;100.00
47260;BME280;32999;52.412;4.890;2022-10-31T01:34:54;101998.66;;;13.96;100.00
47260;BME280;32999;52.412;4.890;2022-10-31T01:39:55;102017.31;;;14.13;100.00
47260;BME280;32999;52.412;4.890;2022-10-31T01:45:00;102014.47;;;14.14;100.00
47260;BME280;32999;52.412;4.890;2022-10-31T01:50:05;102035.31;;;14.12;100.00
47260;BME280;32999;52.412;4.890;2022-10-31T01:55:12;102003.38;;;13.94;100.00
47260;BME280;32999;52.412;4.890;2022-10-31T02:00:17;102015.03;;;14.10;100.00
47260;BME280;32999;52.412;4.890;2022-10-31T02:05:22;101943.75;;;13.53;100.00
47260;BME280;32999;52.412;4.890;2022-10-31T02:10:25;101973.78;;;13.80;100.00
47260;BME280;32999;52.412;4.890;2022-10-31T02:15:30;101945.78;;;13.51;100.00
47260;BME280;32999;52.412;4.890;2022-10-31T02:20:34;102022.97;;;14.03;100.00
47260;BME280;32999;52.412;4.890;2022-10-31T02:25:52;102018.59;;;14.02;100.00
47260;BME280;32999;52.412;4.890;2022-10-31T02:31:15;101957.47;;;13.58;100.00
47260;BME280;32999;52.412;4.890;2022-10-31T02:36:24;101968.81;;;13.69;100.00
47260;BME280;32999;52.412;4.890;2022-10-31T02:41:33;101951.44;;;13.56;100.00
47260;BME280;32999;52.412;4.890;2022-10-31T02:46:44;101974.66;;;13.49;100.00
47260;BME280;32999;52.412;4.890;2022-10-31T02:51:50;101967.38;;;13.58;100.00
47260;BME280;32999;52.412;4.890;2022-10-31T02:56:56;101998.19;;;13.70;100.00
47260;BME280;32999;52.412;4.890;2022-10-31T03:02:12;102020.47;;;13.79;100.00
47260;BME280;32999;52.412;4.890;2022-10-31T03:07:25;102000.06;;;13.61;100.00
47260;BME280;32999;52.412;4.890;2022-10-31T03:12:37;101987.06;;;13.50;100.00
47260;BME280;32999;52.412;4.890;2022-10-31T03:17:49;101984.78;;;13.39;100.00
47260;BME280;32999;52.412;4.890;2022-10-31T03:22:54;102017.94;;;13.54;100.00
47260;BME280;32999;52.412;4.890;2022-10-31T03:27:58;102014.63;;;13.44;100.00
47260;BME280;32999;52.412;4.890;2022-10-31T03:33:03;102014.84;;;13.35;100.00
47260;BME280;32999;52.412;4.890;2022-10-31T03:38:09;101965.84;;;12.93;100.00
47260;BME280;32999;52.412;4.890;2022-10-31T03:43:15;102005.06;;;13.03;100.00
47260;BME280;32999;52.412;4.890;2022-10-31T03:48:19;102007.25;;;12.99;100.00
47260;BME280;32999;52.412;4.890;2022-10-31T03:53:25;102028.06;;;12.97;100.00
47260;BME280;32999;52.412;4.890;2022-10-31T03:58:33;102020.25;;;12.79;100.00
47260;BME280;32999;52.412;4.890;2022-10-31T04:03:39;101942.94;;;12.36;100.00
47260;BME280;32999;52.412;4.890;2022-10-31T04:08:44;101919.19;;;12.08;100.00
47260;BME280;32999;52.412;4.890;2022-10-31T04:13:48;102017.56;;;12.71;100.00
47260;BME280;32999;52.412;4.890;2022-10-31T04:18:52;102018.75;;;12.69;100.00
47260;BME280;32999;52.412;4.890;2022-10-31T04:23:54;102004.22;;;12.47;100.00
47260;BME280;32999;52.412;4.890;2022-10-31T04:28:55;101968.56;;;12.30;100.00
47260;BME280;32999;52.412;4.890;2022-10-31T04:33:58;101946.28;;;12.21;100.00
47260;BME280;32999;52.412;4.890;2022-10-31T04:39:00;101993.66;;;12.45;100.00
47260;BME280;32999;52.412;4.890;2022-10-31T04:44:02;102046.41;;;12.77;100.00
47260;BME280;32999;52.412;4.890;2022-10-31T04:49:05;101967.06;;;12.36;100.00
47260;BME280;32999;52.412;4.890;2022-10-31T04:54:06;102033.16;;;12.84;100.00
47260;BME280;32999;52.412;4.890;2022-10-31T04:59:08;101989.63;;;12.57;100.00
47260;BME280;32999;52.412;4.890;2022-10-31T05:04:11;102039.13;;;12.94;100.00
47260;BME280;32999;52.412;4.890;2022-10-31T05:09:13;102028.56;;;12.92;100.00
47260;BME280;32999;52.412;4.890;2022-10-31T05:14:15;101978.50;;;12.69;100.00
47260;BME280;32999;52.412;4.890;2022-10-31T05:19:18;102029.91;;;12.88;100.00
47260;BME280;32999;52.412;4.890;2022-10-31T05:24:20;102000.47;;;12.80;100.00
47260;BME280;32999;52.412;4.890;2022-10-31T05:29:21;102001.31;;;12.73;100.00
47260;BME280;32999;52.412;4.890;2022-10-31T05:34:25;101992.81;;;12.45;100.00
47260;BME280;32999;52.412;4.890;2022-10-31T05:39:26;101993.44;;;12.71;100.00
47260;BME280;32999;52.412;4.890;2022-10-31T05:44:28;101976.38;;;12.56;100.00
47260;BME280;32999;52.412;4.890;2022-10-31T05:49:31;102011.19;;;12.80;100.00
47260;BME280;32999;52.412;4.890;2022-10-31T05:54:33;102003.25;;;12.95;100.00
47260;BME280;32999;52.412;4.890;2022-10-31T05:59:35;101990.84;;;12.94;100.00
47260;BME280;32999;52.412;4.890;2022-10-31T06:04:38;101994.00;;;12.98;100.00
47260;BME280;32999;52.412;4.890;2022-10-31T06:09:40;101992.34;;;12.97;100.00
47260;BME280;32999;52.412;4.890;2022-10-31T06:14:41;101938.13;;;12.62;100.00
47260;BME280;32999;52.412;4.890;2022-10-31T06:19:44;101919.94;;;12.41;100.00
47260;BME280;32999;52.412;4.890;2022-10-31T06:24:46;101948.06;;;12.45;100.00
47260;BME280;32999;52.412;4.890;2022-10-31T06:29:47;101984.69;;;12.77;100.00
47260;BME280;32999;52.412;4.890;2022-10-31T06:34:50;102013.19;;;12.78;100.00
47260;BME280;32999;52.412;4.890;2022-10-31T06:39:52;101877.66;;;11.96;100.00
47260;BME280;32999;52.412;4.890;2022-10-31T06:44:54;102009.06;;;12.59;100.00
47260;BME280;32999;52.412;4.890;2022-10-31T06:49:57;101984.78;;;12.45;100.00
47260;BME280;32999;52.412;4.890;2022-10-31T06:54:58;101992.50;;;12.40;100.00
47260;BME280;32999;52.412;4.890;2022-10-31T07:00:00;101996.19;;;12.39;100.00
47260;BME280;32999;52.412;4.890;2022-10-31T07:05:04;101902.81;;;11.79;100.00
47260;BME280;32999;52.412;4.890;2022-10-31T07:10:06;101913.19;;;11.82;100.00
47260;BME280;32999;52.412;4.890;2022-10-31T07:15:08;102028.69;;;12.52;100.00
47260;BME280;32999;52.412;4.890;2022-10-31T07:20:12;102017.63;;;12.55;100.00
47260;BME280;32999;52.412;4.890;2022-10-31T07:25:13;102012.72;;;12.75;100.00
47260;BME280;32999;52.412;4.890;2022-10-31T07:30:15;102019.91;;;12.82;100.00
47260;BME280;32999;52.412;4.890;2022-10-31T07:35:22;102023.69;;;13.04;100.00
47260;BME280;32999;52.412;4.890;2022-10-31T07:40:24;102036.41;;;13.18;100.00
47260;BME280;32999;52.412;4.890;2022-10-31T07:45:26;101998.63;;;13.12;100.00
47260;BME280;32999;52.412;4.890;2022-10-31T07:50:30;102001.03;;;13.07;100.00
47260;BME280;32999;52.412;4.890;2022-10-31T07:55:34;102045.09;;;13.59;100.00
47260;BME280;32999;52.412;4.890;2022-10-31T08:00:37;102041.16;;;13.70;100.00
47260;BME280;32999;52.412;4.890;2022-10-31T08:05:41;102038.44;;;13.78;100.00
47260;BME280;32999;52.412;4.890;2022-10-31T08:10:45;101995.97;;;13.74;100.00
47260;BME280;32999;52.412;4.890;2022-10-31T08:15:46;102047.38;;;14.16;100.00
47260;BME280;32999;52.412;4.890;2022-10-31T08:20:53;102028.91;;;14.13;100.00
47260;BME280;32999;52.412;4.890;2022-10-31T08:25:55;101948.13;;;13.92;100.00
47260;BME280;32999;52.412;4.890;2022-10-31T08:30:58;101988.25;;;14.69;100.00
47260;BME280;32999;52.412;4.890;2022-10-31T08:36:01;101924.78;;;14.59;100.00
47260;BME280;32999;52.412;4.890;2022-10-31T08:41:03;101975.53;;;15.85;100.00
47260;BME280;32999;52.412;4.890;2022-10-31T08:46:05;101931.19;;;16.44;100.00
47260;BME280;32999;52.412;4.890;2022-10-31T08:51:09;101930.31;;;17.19;100.00
47260;BME280;32999;52.412;4.890;2022-10-31T08:56:11;102000.34;;;18.80;100.00
47260;BME280;32999;52.412;4.890;2022-10-31T09:01:12;102002.56;;;19.54;100.00
47260;BME280;32999;52.412;4.890;2022-10-31T09:06:15;101985.97;;;19.69;100.00
47260;BME280;32999;52.412;4.890;2022-10-31T09:11:17;101914.09;;;18.71;100.00
47260;BME280;32999;52.412;4.890;2022-10-31T09:16:19;101939.19;;;18.26;100.00
47260;BME280;32999;52.412;4.890;2022-10-31T09:21:22;101903.41;;;18.05;100.00
47260;BME280;32999;52.412;4.890;2022-10-31T09:26:24;101966.94;;;18.99;100.00
47260;BME280;32999;52.412;4.890;2022-10-31T09:31:25;101916.72;;;18.97;100.00
47260;BME280;32999;52.412;4.890;2022-10-31T09:36:28;101970.47;;;19.38;100.00
47260;BME280;32999;52.412;4.890;2022-10-31T09:41:43;101921.19;;;18.72;100.00
47260;BME280;32999;52.412;4.890;2022-10-31T09:46:55;101949.34;;;19.85;100.00
47260;BME280;32999;52.412;4.890;2022-10-31T09:52:04;101939.63;;;20.45;100.00
47260;BME280;32999;52.412;4.890;2022-10-31T09:57:12;101942.41;;;19.89;100.00
47260;BME280;32999;52.412;4.890;2022-10-31T10:02:19;101844.41;;;18.91;100.00
47260;BME280;32999;52.412;4.890;2022-10-31T10:07:30;101937.94;;;20.01;100.00
47260;BME280;32999;52.412;4.890;2022-10-31T10:12:42;101867.50;;;18.49;100.00
47260;BME280;32999;52.412;4.890;2022-10-31T10:17:57;101911.66;;;18.43;100.00
47260;BME280;32999;52.412;4.890;2022-10-31T10:23:23;101934.19;;;18.30;100.00
47260;BME280;32999;52.412;4.890;2022-10-31T10:28:29;101917.16;;;18.03;100.00
47260;BME280;32999;52.412;4.890;2022-10-31T10:33:41;101915.97;;;18.57;100.00
47260;BME280;32999;52.412;4.890;2022-10-31T10:38:50;101833.88;;;18.18;100.00
47260;BME280;32999;52.412;4.890;2022-10-31T10:43:52;101836.03;;;18.61;100.00
47260;BME280;32999;52.412;4.890;2022-10-31T10:48:58;101851.81;;;19.09;100.00
47260;BME280;32999;52.412;4.890;2022-10-31T10:54:17;101857.28;;;19.33;100.00
47260;BME280;32999;52.412;4.890;2022-10-31T10:59:22;101870.00;;;19.33;100.00
47260;BME280;32999;52.412;4.890;2022-10-31T11:04:32;101858.88;;;19.10;100.00
47260;BME280;32999;52.412;4.890;2022-10-31T11:09:36;101852.09;;;19.00;100.00
47260;BME280;32999;52.412;4.890;2022-10-31T11:14:42;101830.56;;;19.06;100.00
47260;BME280;32999;52.412;4.890;2022-10-31T11:19:45;101770.06;;;18.87;100.00
47260;BME280;32999;52.412;4.890;2022-10-31T11:24:48;101819.28;;;19.09;100.00
47260;BME280;32999;52.412;4.890;2022-10-31T11:29:50;101810.25;;;18.90;100.00
47260;BME280;32999;52.412;4.890;2022-10-31T11:34:54;101788.19;;;18.86;100.00
47260;BME280;32999;52.412;4.890;2022-10-31T11:39:59;101790.38;;;19.02;100.00
47260;BME280;32999;52.412;4.890;2022-10-31T11:45:06;101753.84;;;18.35;100.00
47260;BME280;32999;52.412;4.890;2022-10-31T11:50:10;101802.47;;;18.68;100.00
47260;BME280;32999;52.412;4.890;2022-10-31T11:55:30;101793.72;;;18.66;100.00
47260;BME280;32999;52.412;4.890;2022-10-31T12:00:37;101776.22;;;19.00;100.00
47260;BME280;32999;52.412;4.890;2022-10-31T12:05:42;101771.94;;;19.67;100.00
47260;BME280;32999;52.412;4.890;2022-10-31T12:10:53;101700.59;;;19.42;100.00
47260;BME280;32999;52.412;4.890;2022-10-31T12:16:02;101751.78;;;19.57;100.00
47260;BME280;32999;52.412;4.890;2022-10-31T12:21:15;101682.00;;;19.27;100.00
47260;BME280;32999;52.412;4.890;2022-10-31T12:26:29;101726.00;;;19.48;100.00
47260;BME280;32999;52.412;4.890;2022-10-31T12:31:42;101725.63;;;18.94;100.00
47260;BME280;32999;52.412;4.890;2022-10-31T12:36:56;101657.50;;;18.91;100.00
47260;BME280;32999;52.412;4.890;2022-10-31T12:42:10;101726.41;;;19.51;100.00
47260;BME280;32999;52.412;4.890;2022-10-31T12:47:51;101675.63;;;19.58;100.00
47260;BME280;32999;52.412;4.890;2022-10-31T12:53:07;101628.13;;;19.31;100.00
47260;BME280;32999;52.412;4.890;2022-10-31T12:58:19;101693.06;;;19.44;100.00
47260;BME280;32999;52.412;4.890;2022-10-31T13:03:28;101664.22;;;19.07;100.00
47260;BME280;32999;52.412;4.890;2022-10-31T13:08:36;101646.13;;;19.68;100.00
47260;BME280;32999;52.412;4.890;2022-10-31T13:13:47;101627.56;;;19.65;100.00
47260;BME280;32999;52.412;4.890;2022-10-31T13:19:08;101502.72;;;19.24;100.00
47260;BME280;32999;52.412;4.890;2022-10-31T13:24:14;101602.88;;;19.55;100.00
47260;BME280;32999;52.412;4.890;2022-10-31T13:29:23;101552.34;;;19.24;100.00
47260;BME280;32999;52.412;4.890;2022-10-31T13:34:30;101584.56;;;19.69;100.00
47260;BME280;32999;52.412;4.890;2022-10-31T13:39:46;101547.66;;;19.13;100.00
47260;BME280;32999;52.412;4.890;2022-10-31T13:44:51;101565.75;;;19.19;100.00
47260;BME280;32999;52.412;4.890;2022-10-31T13:50:05;101560.66;;;18.86;100.00
47260;BME280;32999;52.412;4.890;2022-10-31T13:55:37;101562.84;;;18.78;100.00
47260;BME280;32999;52.412;4.890;2022-10-31T14:00:41;101557.63;;;18.51;100.00
47260;BME280;32999;52.412;4.890;2022-10-31T14:05:51;101554.00;;;18.32;100.00
47260;BME280;32999;52.412;4.890;2022-10-31T14:10:54;101547.41;;;18.28;100.00
47260;BME280;32999;52.412;4.890;2022-10-31T14:16:00;101473.09;;;17.75;100.00
47260;BME280;32999;52.412;4.890;2022-10-31T14:21:14;101489.75;;;18.03;100.00
47260;BME280;32999;52.412;4.890;2022-10-31T14:26:31;101515.81;;;18.22;100.00
47260;BME280;32999;52.412;4.890;2022-10-31T14:31:37;101457.13;;;17.98;100.00
47260;BME280;32999;52.412;4.890;2022-10-31T14:36:46;101445.78;;;17.83;100.00
47260;BME280;32999;52.412;4.890;2022-10-31T14:42:08;101411.66;;;17.82;100.00
47260;BME280;32999;52.412;4.890;2022-10-31T14:47:22;101448.16;;;17.73;100.00
47260;BME280;32999;52.412;4.890;2022-10-31T14:52:25;101468.72;;;18.30;100.00
47260;BME280;32999;52.412;4.890;2022-10-31T14:57:30;101370.19;;;17.63;100.00
47260;BME280;32999;52.412;4.890;2022-10-31T15:02:41;101408.59;;;18.03;100.00
47260;BME280;32999;52.412;4.890;2022-10-31T15:07:49;101430.50;;;18.20;100.00
47260;BME280;32999;52.412;4.890;2022-10-31T15:12:52;101347.69;;;17.13;100.00
47260;BME280;32999;52.412;4.890;2022-10-31T15:17:58;101427.34;;;17.35;100.00
47260;BME280;32999;52.412;4.890;2022-10-31T15:23:00;101425.38;;;17.11;100.00
47260;BME280;32999;52.412;4.890;2022-10-31T15:28:13;101386.84;;;16.97;100.00
47260;BME280;32999;52.412;4.890;2022-10-31T15:33:21;101405.66;;;16.52;100.00
47260;BME280;32999;52.412;4.890;2022-10-31T15:38:23;101293.56;;;15.85;100.00
47260;BME280;32999;52.412;4.890;2022-10-31T15:43:26;101345.13;;;16.22;100.00
47260;BME280;32999;52.412;4.890;2022-10-31T15:48:31;101344.50;;;16.33;100.00
47260;BME280;32999;52.412;4.890;2022-10-31T15:53:37;101374.19;;;16.26;100.00
47260;BME280;32999;52.412;4.890;2022-10-31T15:58:44;101365.81;;;16.48;100.00
47260;BME280;32999;52.412;4.890;2022-10-31T16:03:59;101316.94;;;16.11;100.00
47260;BME280;32999;52.412;4.890;2022-10-31T16:09:01;101340.00;;;15.94;100.00
47260;BME280;32999;52.412;4.890;2022-10-31T16:14:06;101295.44;;;15.72;100.00
47260;BME280;32999;52.412;4.890;2022-10-31T16:19:34;101283.84;;;15.51;100.00
47260;BME280;32999;52.412;4.890;2022-10-31T16:24:46;101345.19;;;15.76;100.00
47260;BME280;32999;52.412;4.890;2022-10-31T16:29:49;101296.31;;;15.59;100.00
47260;BME280;32999;52.412;4.890;2022-10-31T16:35:00;101343.09;;;15.84;100.00
47260;BME280;32999;52.412;4.890;2022-10-31T16:40:02;101332.13;;;15.99;100.00
47260;BME280;32999;52.412;4.890;2022-10-31T16:45:08;101325.84;;;16.18;100.00
47260;BME280;32999;52.412;4.890;2022-10-31T16:50:23;101253.78;;;15.74;100.00
47260;BME280;32999;52.412;4.890;2022-10-31T16:55:25;101302.66;;;15.91;100.00
47260;BME280;32999;52.412;4.890;2022-10-31T17:00:29;101273.06;;;15.78;100.00
47260;BME280;32999;52.412;4.890;2022-10-31T17:05:32;101205.50;;;15.59;100.00
47260;BME280;32999;52.412;4.890;2022-10-31T17:10:35;101270.72;;;15.94;100.00
47260;BME280;32999;52.412;4.890;2022-10-31T17:15:40;101262.63;;;16.01;100.00
47260;BME280;32999;52.412;4.890;2022-10-31T17:20:45;101245.97;;;16.17;100.00
47260;BME280;32999;52.412;4.890;2022-10-31T17:25:47;101161.34;;;15.60;100.00
47260;BME280;32999;52.412;4.890;2022-10-31T17:30:49;101217.84;;;15.93;100.00
47260;BME280;32999;52.412;4.890;2022-10-31T17:35:52;101180.56;;;15.84;100.00
47260;BME280;32999;52.412;4.890;2022-10-31T17:40:53;101247.63;;;16.25;100.00
47260;BME280;32999;52.412;4.890;2022-10-31T17:45:58;101099.84;;;15.57;100.00
47260;BME280;32999;52.412;4.890;2022-10-31T17:51:02;101143.69;;;15.78;100.00
47260;BME280;32999;52.412;4.890;2022-10-31T17:56:06;101145.31;;;15.85;100.00
47260;BME280;32999;52.412;4.890;2022-10-31T18:01:10;101203.44;;;16.19;100.00
47260;BME280;32999;52.412;4.890;2022-10-31T18:06:20;101187.88;;;16.21;100.00
47260;BME280;32999;52.412;4.890;2022-10-31T18:11:22;101137.50;;;15.71;100.00
47260;BME280;32999;52.412;4.890;2022-10-31T18:16:25;101082.06;;;15.30;100.00
47260;BME280;32999;52.412;4.890;2022-10-31T18:21:28;101139.78;;;15.60;100.00
47260;BME280;32999;52.412;4.890;2022-10-31T18:26:30;101067.63;;;14.98;100.00
47260;BME280;32999;52.412;4.890;2022-10-31T18:31:32;101047.38;;;14.82;100.00
47260;BME280;32999;52.412;4.890;2022-10-31T18:36:35;101108.13;;;15.43;100.00
47260;BME280;32999;52.412;4.890;2022-10-31T18:41:37;101145.97;;;15.81;100.00
47260;BME280;32999;52.412;4.890;2022-10-31T18:46:39;101143.91;;;15.83;100.00
47260;BME280;32999;52.412;4.890;2022-10-31T18:51:42;101061.53;;;15.36;100.00
47260;BME280;32999;52.412;4.890;2022-10-31T18:56:44;101042.25;;;15.39;100.00
47260;BME280;32999;52.412;4.890;2022-10-31T19:01:45;101025.97;;;15.20;100.00
47260;BME280;32999;52.412;4.890;2022-10-31T19:06:49;101031.13;;;15.22;100.00
47260;BME280;32999;52.412;4.890;2022-10-31T19:11:50;101115.13;;;15.63;100.00
47260;BME280;32999;52.412;4.890;2022-10-31T19:16:52;101101.44;;;15.72;100.00
47260;BME280;32999;52.412;4.890;2022-10-31T19:21:55;101115.44;;;15.87;100.00
47260;BME280;32999;52.412;4.890;2022-10-31T19:27:03;100948.16;;;15.06;100.00
47260;BME280;32999;52.412;4.890;2022-10-31T19:32:04;100957.81;;;15.20;100.00
47260;BME280;32999;52.412;4.890;2022-10-31T19:37:08;101019.41;;;15.54;100.00
47260;BME280;32999;52.412;4.890;2022-10-31T19:42:10;101008.66;;;15.48;100.00
47260;BME280;32999;52.412;4.890;2022-10-31T19:47:12;101060.50;;;15.88;100.00
47260;BME280;32999;52.412;4.890;2022-10-31T19:52:16;101047.53;;;15.72;100.00
47260;BME280;32999;52.412;4.890;2022-10-31T19:57:17;101052.00;;;15.84;100.00
47260;BME280;32999;52.412;4.890;2022-10-31T20:02:19;101041.91;;;15.80;100.00
47260;BME280;32999;52.412;4.890;2022-10-31T20:07:22;100976.78;;;15.38;100.00
47260;BME280;32999;52.412;4.890;2022-10-31T20:12:24;100884.59;;;15.05;100.00
47260;BME280;32999;52.412;4.890;2022-10-31T20:17:25;100933.59;;;15.13;100.00
47260;BME280;32999;52.412;4.890;2022-10-31T20:22:29;101023.47;;;15.77;100.00
47260;BME280;32999;52.412;4.890;2022-10-31T20:27:30;101006.66;;;15.81;100.00
47260;BME280;32999;52.412;4.890;2022-10-31T20:32:32;100967.91;;;15.76;100.00
47260;BME280;32999;52.412;4.890;2022-10-31T20:37:35;100922.72;;;15.40;100.00
47260;BME280;32999;52.412;4.890;2022-10-31T20:42:37;100984.38;;;15.92;100.00
47260;BME280;32999;52.412;4.890;2022-10-31T20:47:39;100855.44;;;15.33;100.00
47260;BME280;32999;52.412;4.890;2022-10-31T20:52:42;100962.78;;;15.99;100.00
47260;BME280;32999;52.412;4.890;2022-10-31T20:57:44;100943.84;;;15.81;100.00
47260;BME280;32999;52.412;4.890;2022-10-31T21:02:46;100951.31;;;15.79;100.00
47260;BME280;32999;52.412;4.890;2022-10-31T21:07:50;100966.78;;;16.15;100.00
47260;BME280;32999;52.412;4.890;2022-10-31T21:12:51;100909.56;;;15.88;100.00
47260;BME280;32999;52.412;4.890;2022-10-31T21:17:53;100895.69;;;16.09;100.00
47260;BME280;32999;52.412;4.890;2022-10-31T21:22:56;100885.50;;;16.11;100.00
47260;BME280;32999;52.412;4.890;2022-10-31T21:27:58;100928.75;;;16.48;100.00
47260;BME280;32999;52.412;4.890;2022-10-31T21:33:00;100853.41;;;15.85;100.00
47260;BME280;32999;52.412;4.890;2022-10-31T21:38:03;100911.59;;;16.17;100.00
47260;BME280;32999;52.412;4.890;2022-10-31T21:43:05;100911.59;;;16.17;100.00
47260;BME280;32999;52.412;4.890;2022-10-31T21:48:06;100899.19;;;16.34;100.00
47260;BME280;32999;52.412;4.890;2022-10-31T21:53:37;100881.59;;;16.50;100.00
47260;BME280;32999;52.412;4.890;2022-10-31T21:58:56;100879.03;;;16.37;100.00
47260;BME280;32999;52.412;4.890;2022-10-31T22:03:58;100866.03;;;16.52;100.00
47260;BME280;32999;52.412;4.890;2022-10-31T22:09:03;100870.56;;;16.33;100.00
47260;BME280;32999;52.412;4.890;2022-10-31T22:14:05;100875.06;;;16.21;100.00
47260;BME280;32999;52.412;4.890;2022-10-31T22:19:10;100868.59;;;16.04;100.00
47260;BME280;32999;52.412;4.890;2022-10-31T22:24:14;100870.09;;;16.18;100.00
47260;BME280;32999;52.412;4.890;2022-10-31T22:29:17;100857.53;;;16.30;100.00
47260;BME280;32999;52.412;4.890;2022-10-31T22:34:19;100825.59;;;16.09;100.00
47260;BME280;32999;52.412;4.890;2022-10-31T22:39:22;100839.72;;;16.29;100.00
47260;BME280;32999;52.412;4.890;2022-10-31T22:44:24;100831.56;;;16.54;100.00
47260;BME280;32999;52.412;4.890;2022-10-31T22:49:26;100806.28;;;16.49;100.00
47260;BME280;32999;52.412;4.890;2022-10-31T22:54:29;100810.50;;;16.81;100.00
47260;BME280;32999;52.412;4.890;2022-10-31T22:59:31;100801.66;;;16.74;100.00
47260;BME280;32999;52.412;4.890;2022-10-31T23:04:33;100780.66;;;16.40;100.00
47260;BME280;32999;52.412;4.890;2022-10-31T23:09:36;100806.81;;;16.39;100.00
47260;BME280;32999;52.412;4.890;2022-10-31T23:14:37;100749.88;;;15.92;100.00
47260;BME280;32999;52.412;4.890;2022-10-31T23:19:39;100781.69;;;15.84;100.00
47260;BME280;32999;52.412;4.890;2022-10-31T23:24:43;100785.06;;;15.79;100.00
47260;BME280;32999;52.412;4.890;2022-10-31T23:29:47;100790.16;;;15.62;100.00
47260;BME280;32999;52.412;4.890;2022-10-31T23:34:50;100766.19;;;15.54;100.00
47260;BME280;32999;52.412;4.890;2022-10-31T23:39:55;100775.53;;;15.77;100.00
47260;BME280;32999;52.412;4.890;2022-10-31T23:44:56;100689.25;;;15.15;100.00
47260;BME280;32999;52.412;4.890;2022-10-31T23:49:58;100704.44;;;15.53;100.00
47260;BME280;32999;52.412;4.890;2022-10-31T23:55:01;100753.66;;;15.67;100.00
